createdAt,value
2022-08-22T00:00:55.929Z,10.88
2022-08-22T00:02:10.130Z,7.50
2022-08-22T00:02:42.056Z,10.25
2022-08-22T00:02:48.856Z,12.85
2022-08-22T00:02:52.693Z,15.02
2022-08-22T00:02:59.713Z,7.93
2022-08-22T00:03:02.037Z,11.73
2022-08-22T00:03:31.590Z,7.07
2022-08-22T00:05:01.028Z,7.85
2022-08-22T00:06:39.166Z,7.78
2022-08-22T00:07:53.806Z,10.77
2022-08-22T00:09:06.128Z,13.00
2022-08-22T00:10:25.278Z,9.60
2022-08-22T00:11:38.395Z,12.88
2022-08-22T00:12:50.746Z,10.27
2022-08-22T00:14:13.665Z,9.27
2022-08-22T00:15:43.159Z,8.57
2022-08-22T00:17:00.546Z,10.05
2022-08-22T00:18:20.553Z,10.13
2022-08-22T00:19:56.414Z,8.23
2022-08-22T00:21:16.290Z,9.77
2022-08-22T00:22:32.172Z,11.48
2022-08-22T00:23:43.505Z,11.18
2022-08-22T00:24:58.344Z,10.30
2022-08-22T00:26:31.750Z,9.35
2022-08-22T00:27:53.025Z,11.57
2022-08-22T00:30:18.688Z,11.57
2022-08-22T00:31:24.501Z,7.53
2022-08-22T00:32:33.027Z,9.00
2022-08-22T00:33:48.230Z,11.98
2022-08-22T00:35:02.757Z,8.43
2022-08-22T00:36:16.481Z,7.30
2022-08-22T00:37:46.296Z,8.32
2022-08-22T00:39:07.758Z,7.50
2022-08-22T00:40:30.539Z,9.63
2022-08-22T00:41:49.605Z,9.30
2022-08-22T00:43:32.742Z,9.20
2022-08-22T00:45:12.303Z,7.32
2022-08-22T00:46:32.485Z,9.23
2022-08-22T00:48:03.887Z,7.47
2022-08-22T00:49:21.977Z,9.50
2022-08-22T00:50:52.161Z,10.82
2022-08-22T00:51:56.522Z,8.63
2022-08-22T00:53:00.873Z,13.05
2022-08-22T00:54:21.628Z,10.30
2022-08-22T00:55:41.731Z,8.10
2022-08-22T00:57:31.574Z,9.30
2022-08-22T00:58:57.619Z,7.20
2022-08-22T01:00:14.184Z,11.98
2022-08-22T01:01:26.544Z,8.68
2022-08-22T01:02:56.862Z,9.75
2022-08-22T01:04:13.850Z,10.52
2022-08-22T01:05:33.289Z,8.05
2022-08-22T01:06:40.741Z,11.23
2022-08-22T01:08:01.645Z,8.82
2022-08-22T01:09:14.016Z,9.40
2022-08-22T01:10:52.460Z,9.70
2022-08-22T01:12:23.934Z,11.43
2022-08-22T01:14:38.790Z,11.82
2022-08-22T01:15:42.515Z,10.85
2022-08-22T01:17:01.965Z,9.70
2022-08-22T01:18:25.080Z,8.15
2022-08-22T01:20:00.867Z,11.55
2022-08-22T01:21:30.350Z,12.32
2022-08-22T01:22:31.997Z,8.73
2022-08-22T01:24:08.937Z,8.48
2022-08-22T01:25:57.288Z,13.32
2022-08-22T01:27:19.336Z,7.97
2022-08-22T01:28:45.171Z,12.35
2022-08-22T01:30:31.770Z,10.80
2022-08-22T01:31:51.718Z,12.82
2022-08-22T01:33:19.355Z,17.58
2022-08-22T01:34:36.126Z,11.10
2022-08-22T01:36:02.678Z,11.65
2022-08-22T01:37:23.866Z,12.00
2022-08-22T01:38:48.130Z,9.73
2022-08-22T01:40:31.022Z,8.52
2022-08-22T01:41:46.319Z,12.23
2022-08-22T01:43:12.237Z,12.52
2022-08-22T01:44:53.042Z,9.65
2022-08-22T01:46:11.740Z,9.63
2022-08-22T01:47:17.949Z,13.95
2022-08-22T01:48:31.281Z,10.35
2022-08-22T01:50:02.237Z,11.88
2022-08-22T01:51:17.767Z,14.32
2022-08-22T01:52:43.853Z,12.70
2022-08-22T01:54:27.175Z,11.05
2022-08-22T01:55:44.829Z,11.05
2022-08-22T01:56:47.500Z,13.57
2022-08-22T01:57:56.168Z,13.90
2022-08-22T01:59:04.821Z,11.15
2022-08-22T02:00:17.647Z,13.45
2022-08-22T02:01:53.309Z,16.52
2022-08-22T02:03:28.126Z,10.65
2022-08-22T02:04:34.499Z,9.38
2022-08-22T02:06:09.987Z,20.45
2022-08-22T02:07:31.832Z,13.80
2022-08-22T02:09:02.926Z,12.68
2022-08-22T02:10:25.577Z,12.18
2022-08-22T02:11:52.405Z,14.70
2022-08-22T02:13:03.350Z,10.20
2022-08-22T02:14:21.467Z,13.20
2022-08-22T02:15:38.485Z,10.85
2022-08-22T02:16:47.530Z,11.85
2022-08-22T02:18:09.110Z,12.43
2022-08-22T02:19:10.752Z,15.38
2022-08-22T02:20:25.188Z,15.13
2022-08-22T02:21:43.094Z,12.32
2022-08-22T02:23:04.306Z,10.45
2022-08-22T02:24:16.712Z,10.85
2022-08-22T02:25:25.801Z,12.32
2022-08-22T02:26:51.720Z,15.38
2022-08-22T02:28:05.682Z,9.55
2022-08-22T02:29:21.302Z,13.57
2022-08-22T02:30:42.321Z,12.35
2022-08-22T02:31:56.887Z,9.38
2022-08-22T02:33:12.802Z,11.80
2022-08-22T02:34:47.574Z,15.02
2022-08-22T02:36:00.044Z,14.40
2022-08-22T02:37:10.613Z,12.00
2022-08-22T02:38:40.041Z,10.10
2022-08-22T02:40:05.183Z,14.18
2022-08-22T02:41:14.383Z,12.98
2022-08-22T02:42:34.830Z,8.27
2022-08-22T02:43:45.051Z,17.27
2022-08-22T02:45:00.519Z,10.67
2022-08-22T02:46:14.368Z,14.40
2022-08-22T02:47:29.662Z,16.48
2022-08-22T02:49:12.210Z,11.45
2022-08-22T02:50:24.607Z,16.30
2022-08-22T02:51:50.098Z,13.40
2022-08-22T02:53:05.594Z,12.02
2022-08-22T02:54:45.606Z,12.85
2022-08-22T02:56:03.621Z,10.23
2022-08-22T02:57:14.871Z,12.25
2022-08-22T02:58:42.189Z,9.70
2022-08-22T03:00:32.004Z,14.23
2022-08-22T03:01:40.861Z,15.48
2022-08-22T03:02:45.887Z,13.18
2022-08-22T03:03:48.762Z,13.57
2022-08-22T03:04:57.662Z,14.85
2022-08-22T03:06:05.576Z,13.32
2022-08-22T03:07:22.111Z,10.00
2022-08-22T03:08:31.940Z,15.63
2022-08-22T03:09:56.557Z,10.38
2022-08-22T03:11:24.574Z,11.15
2022-08-22T03:12:32.730Z,15.38
2022-08-22T03:13:59.367Z,12.38
2022-08-22T03:15:29.129Z,14.50
2022-08-22T03:17:11.000Z,11.23
2022-08-22T03:18:12.672Z,26.25
2022-08-22T03:19:27.834Z,12.45
2022-08-22T03:21:11.576Z,13.23
2022-08-22T03:22:19.061Z,13.27
2022-08-22T03:23:34.251Z,14.57
2022-08-22T03:24:38.802Z,15.82
2022-08-22T03:25:49.951Z,12.52
2022-08-22T03:28:59.018Z,9.88
2022-08-22T03:30:07.489Z,13.80
2022-08-22T03:31:21.087Z,11.13
2022-08-22T03:32:44.351Z,19.33
2022-08-22T03:34:14.904Z,14.85
2022-08-22T03:35:35.022Z,15.48
2022-08-22T03:36:37.599Z,11.68
2022-08-22T03:37:43.129Z,11.05
2022-08-22T03:39:17.412Z,15.50
2022-08-22T03:40:32.554Z,14.98
2022-08-22T03:42:11.227Z,13.10
2022-08-22T03:43:40.168Z,15.65
2022-08-22T03:45:26.936Z,12.07
2022-08-22T03:47:13.357Z,12.77
2022-08-22T03:48:44.932Z,16.50
2022-08-22T03:51:10.677Z,14.57
2022-08-22T03:52:34.073Z,15.63
2022-08-22T03:54:03.600Z,15.57
2022-08-22T03:55:34.816Z,20.00
2022-08-22T03:56:45.061Z,18.70
2022-08-22T03:58:12.005Z,29.50
2022-08-22T03:59:51.505Z,21.67
2022-08-22T04:01:11.295Z,17.27
2022-08-22T04:02:41.910Z,18.60
2022-08-22T04:04:23.218Z,18.35
2022-08-22T04:05:32.393Z,13.25
2022-08-22T04:07:32.443Z,15.18
2022-08-22T04:09:02.936Z,17.33
2022-08-22T04:10:17.541Z,18.30
2022-08-22T04:11:37.548Z,15.25
2022-08-22T04:12:44.983Z,15.30
2022-08-22T04:13:49.324Z,15.68
2022-08-22T04:15:16.429Z,11.57
2022-08-22T04:16:49.355Z,15.25
2022-08-22T04:18:03.477Z,11.90
2022-08-22T04:19:10.913Z,17.58
2022-08-22T04:20:21.246Z,13.43
2022-08-22T04:22:08.265Z,13.27
2022-08-22T04:23:22.135Z,15.80
2022-08-22T04:24:51.966Z,15.45
2022-08-22T04:26:01.866Z,12.52
2022-08-22T04:27:21.901Z,15.68
2022-08-22T04:28:36.247Z,18.50
2022-08-22T04:29:47.056Z,17.92
2022-08-22T04:31:05.104Z,14.45
2022-08-22T04:32:15.156Z,16.90
2022-08-22T04:33:26.545Z,14.48
2022-08-22T04:34:37.421Z,12.38
2022-08-22T04:35:45.726Z,13.27
2022-08-22T04:36:54.573Z,15.20
2022-08-22T04:38:14.580Z,13.32
2022-08-22T04:39:21.385Z,10.25
2022-08-22T04:40:34.481Z,14.18
2022-08-22T04:41:48.937Z,12.23
2022-08-22T04:43:06.699Z,10.02
2022-08-22T04:44:17.429Z,17.70
2022-08-22T04:45:25.062Z,12.70
2022-08-22T04:46:41.856Z,16.00
2022-08-22T04:47:56.950Z,19.45
2022-08-22T04:49:17.611Z,18.75
2022-08-22T04:50:26.160Z,16.23
2022-08-22T04:51:39.642Z,16.42
2022-08-22T04:52:55.153Z,17.13
2022-08-22T04:53:56.847Z,11.77
2022-08-22T04:55:18.083Z,15.25
2022-08-22T04:57:48.512Z,14.00
2022-08-22T04:59:03.061Z,16.55
2022-08-22T05:00:08.481Z,15.50
2022-08-22T05:01:16.626Z,18.60
2022-08-22T05:02:25.217Z,13.40
2022-08-22T05:03:30.303Z,17.27
2022-08-22T05:04:43.568Z,12.82
2022-08-22T05:05:48.688Z,12.85
2022-08-22T05:06:54.316Z,16.88
2022-08-22T05:07:59.982Z,16.70
2022-08-22T05:09:12.915Z,11.18
2022-08-22T05:10:23.078Z,13.02
2022-08-22T05:11:25.014Z,15.13
2022-08-22T05:12:40.645Z,10.85
2022-08-22T05:13:50.957Z,19.63
2022-08-22T05:15:05.588Z,13.52
2022-08-22T05:16:19.146Z,13.70
2022-08-22T05:17:24.837Z,13.02
2022-08-22T05:18:42.028Z,14.95
2022-08-22T05:19:50.777Z,13.18
2022-08-22T05:20:54.482Z,13.43
2022-08-22T05:21:56.903Z,14.10
2022-08-22T05:23:17.641Z,13.10
2022-08-22T05:24:27.980Z,11.90
2022-08-22T05:25:36.369Z,12.70
2022-08-22T05:26:42.509Z,10.93
2022-08-22T05:27:56.264Z,14.07
2022-08-22T05:29:03.480Z,10.75
2022-08-22T05:30:11.795Z,11.55
2022-08-22T05:31:23.223Z,13.18
2022-08-22T05:32:32.862Z,12.65
2022-08-22T05:33:41.750Z,16.63
2022-08-22T05:34:46.800Z,13.68
2022-08-22T05:35:58.453Z,8.27
2022-08-22T05:37:14.410Z,9.02
2022-08-22T05:38:20.950Z,13.15
2022-08-22T05:39:27.912Z,11.93
2022-08-22T05:40:33.294Z,12.40
2022-08-22T05:41:37.564Z,9.10
2022-08-22T05:42:39.273Z,12.35
2022-08-22T05:43:44.151Z,11.20
2022-08-22T05:44:46.206Z,10.68
2022-08-22T05:45:49.194Z,10.38
2022-08-22T05:47:00.115Z,8.57
2022-08-22T05:49:36.087Z,14.10
2022-08-22T05:50:37.832Z,9.43
2022-08-22T05:51:48.492Z,13.25
2022-08-22T05:53:11.021Z,10.93
2022-08-22T05:54:20.128Z,14.15
2022-08-22T05:55:28.224Z,11.50
2022-08-22T05:56:38.417Z,13.52
2022-08-22T05:57:46.520Z,9.93
2022-08-22T05:58:53.894Z,13.73
2022-08-22T06:00:10.418Z,13.13
2022-08-22T06:01:35.611Z,11.68
2022-08-22T06:03:15.032Z,10.38
2022-08-22T06:04:52.500Z,12.35
2022-08-22T06:06:03.512Z,10.57
2022-08-22T06:07:17.042Z,14.52
2022-08-22T06:08:25.169Z,12.40
2022-08-22T06:09:48.333Z,11.85
2022-08-22T06:10:55.744Z,10.35
2022-08-22T06:12:21.712Z,12.77
2022-08-22T06:13:41.920Z,13.15
2022-08-22T06:14:52.739Z,14.27
2022-08-22T06:17:10.331Z,12.55
2022-08-22T06:18:16.961Z,12.75
2022-08-22T06:19:20.276Z,12.45
2022-08-22T06:20:28.712Z,12.25
2022-08-22T06:21:39.301Z,13.23
2022-08-22T06:22:51.241Z,11.82
2022-08-22T06:24:01.378Z,12.35
2022-08-22T06:25:12.983Z,12.30
2022-08-22T06:26:20.450Z,9.82
2022-08-22T06:27:27.070Z,11.30
2022-08-22T06:28:55.084Z,11.07
2022-08-22T06:30:04.107Z,12.50
2022-08-22T06:31:08.421Z,15.05
2022-08-22T06:32:16.977Z,11.55
2022-08-22T06:33:42.373Z,11.38
2022-08-22T06:34:47.829Z,11.77
2022-08-22T06:36:14.212Z,12.45
2022-08-22T06:37:25.357Z,17.83
2022-08-22T06:38:33.600Z,12.48
2022-08-22T06:39:42.957Z,9.80
2022-08-22T06:40:44.794Z,15.73
2022-08-22T06:41:49.370Z,12.70
2022-08-22T06:42:52.530Z,8.38
2022-08-22T06:43:55.692Z,10.18
2022-08-22T06:45:07.600Z,13.25
2022-08-22T06:46:12.396Z,13.48
2022-08-22T06:47:23.486Z,9.35
2022-08-22T06:48:25.295Z,8.63
2022-08-22T06:49:30.447Z,10.15
2022-08-22T06:50:35.205Z,12.73
2022-08-22T06:51:39.056Z,15.77
2022-08-22T06:53:19.731Z,10.00
2022-08-22T06:54:26.541Z,12.63
2022-08-22T06:55:30.212Z,10.90
2022-08-22T06:56:44.211Z,9.68
2022-08-22T06:57:53.877Z,19.60
2022-08-22T06:58:59.756Z,11.52
2022-08-22T07:00:14.318Z,8.73
2022-08-22T07:01:23.857Z,10.75
2022-08-22T07:02:41.072Z,10.38
2022-08-22T07:04:07.893Z,10.02
2022-08-22T07:05:16.821Z,6.68
2022-08-22T07:06:28.518Z,13.68
2022-08-22T07:07:30.461Z,7.70
2022-08-22T07:08:38.969Z,13.85
2022-08-22T07:09:41.711Z,8.38
2022-08-22T07:10:47.804Z,9.00
2022-08-22T07:11:50.937Z,11.20
2022-08-22T07:12:56.560Z,7.20
2022-08-22T07:14:05.849Z,12.27
2022-08-22T07:15:37.466Z,7.47
2022-08-22T07:16:59.101Z,8.15
2022-08-22T07:18:05.306Z,8.57
2022-08-22T07:19:09.361Z,11.55
2022-08-22T07:20:42.303Z,11.02
2022-08-22T07:21:47.267Z,7.85
2022-08-22T07:23:13.422Z,7.45
2022-08-22T07:24:20.705Z,8.75
2022-08-22T07:25:24.519Z,10.50
2022-08-22T07:26:26.204Z,7.75
2022-08-22T07:27:48.911Z,11.00
2022-08-22T07:28:59.783Z,8.07
2022-08-22T07:30:14.850Z,10.00
2022-08-22T07:31:40.546Z,8.82
2022-08-22T07:32:54.360Z,8.20
2022-08-22T07:34:10.874Z,7.30
2022-08-22T07:35:21.776Z,7.55
2022-08-22T07:37:52.188Z,11.27
2022-08-22T07:39:12.466Z,8.45
2022-08-22T07:40:27.182Z,12.13
2022-08-22T07:42:00.109Z,6.55
2022-08-22T07:43:15.025Z,7.53
2022-08-22T07:44:23.701Z,10.60
2022-08-22T07:45:45.655Z,8.95
2022-08-22T07:46:58.053Z,10.63
2022-08-22T07:48:19.751Z,6.93
2022-08-22T07:49:54.064Z,7.20
2022-08-22T07:51:17.758Z,10.10
2022-08-22T07:52:29.131Z,8.80
2022-08-22T07:53:44.670Z,10.65
2022-08-22T07:55:18.993Z,9.82
2022-08-22T07:56:27.850Z,9.75
2022-08-22T07:57:40.666Z,13.25
2022-08-22T07:58:45.304Z,7.32
2022-08-22T07:59:50.988Z,9.25
2022-08-22T08:00:54.553Z,6.68
2022-08-22T08:02:00.135Z,8.68
2022-08-22T08:03:06.462Z,8.93
2022-08-22T08:04:13.269Z,9.50
2022-08-22T08:05:16.320Z,9.32
2022-08-22T08:06:18.097Z,8.60
2022-08-22T08:07:23.939Z,9.02
2022-08-22T08:08:45.157Z,8.85
2022-08-22T08:09:53.121Z,8.57
2022-08-22T08:10:57.521Z,6.88
2022-08-22T08:12:02.066Z,11.35
2022-08-22T08:13:10.556Z,9.07
2022-08-22T08:14:15.597Z,9.73
2022-08-22T08:15:23.636Z,6.30
2022-08-22T08:16:29.300Z,9.07
2022-08-22T08:17:34.594Z,7.18
2022-08-22T08:18:39.286Z,10.90
2022-08-22T08:19:43.124Z,8.98
2022-08-22T08:20:51.999Z,8.90
2022-08-22T08:21:56.752Z,8.43
2022-08-22T08:22:59.628Z,10.35
2022-08-22T08:24:02.350Z,10.43
2022-08-22T08:25:07.009Z,11.10
2022-08-22T08:26:15.959Z,11.93
2022-08-22T08:27:41.197Z,6.97
2022-08-22T08:28:49.312Z,7.78
2022-08-22T08:29:59.386Z,8.70
2022-08-22T08:31:09.698Z,10.68
2022-08-22T08:32:13.396Z,9.02
2022-08-22T08:33:25.762Z,6.88
2022-08-22T08:34:32.525Z,11.15
2022-08-22T08:35:42.415Z,10.93
2022-08-22T08:37:28.831Z,9.07
2022-08-22T08:38:43.925Z,9.52
2022-08-22T08:39:52.245Z,6.85
2022-08-22T08:41:12.272Z,8.55
2022-08-22T08:42:58.396Z,8.43
2022-08-22T08:44:15.297Z,8.48
2022-08-22T08:45:45.972Z,12.75
2022-08-22T08:47:22.853Z,9.00
2022-08-22T08:48:50.444Z,11.95
2022-08-22T08:50:21.173Z,10.30
2022-08-22T08:52:00.154Z,9.27
2022-08-22T08:53:39.069Z,9.93
2022-08-22T08:55:19.714Z,8.88
2022-08-22T08:56:47.329Z,10.38
2022-08-22T08:58:17.720Z,10.25
2022-08-22T08:59:32.535Z,9.48
2022-08-22T09:01:03.852Z,8.25
2022-08-22T09:02:25.160Z,9.45
2022-08-22T09:03:37.692Z,10.93
2022-08-22T09:04:48.439Z,8.55
2022-08-22T09:05:56.124Z,7.90
2022-08-22T09:07:18.802Z,8.85
2022-08-22T09:08:55.496Z,10.40
2022-08-22T09:10:27.350Z,7.95
2022-08-22T09:12:08.625Z,11.40
2022-08-22T09:13:40.631Z,9.23
2022-08-22T09:15:14.101Z,8.55
2022-08-22T09:16:25.593Z,11.55
2022-08-22T09:17:42.597Z,10.88
2022-08-22T09:19:06.720Z,13.50
2022-08-22T09:20:26.425Z,9.02
2022-08-22T09:21:47.456Z,11.43
2022-08-22T09:23:01.048Z,10.77
2022-08-22T09:24:12.725Z,15.85
2022-08-22T09:25:38.699Z,10.48
2022-08-22T09:26:57.355Z,11.65
2022-08-22T09:28:28.490Z,10.93
2022-08-22T09:31:46.484Z,10.50
2022-08-22T09:33:05.733Z,13.80
2022-08-22T09:34:30.019Z,10.38
2022-08-22T09:35:37.658Z,9.73
2022-08-22T09:36:48.436Z,10.55
2022-08-22T09:39:17.968Z,12.90
2022-08-22T09:40:24.794Z,11.63
2022-08-22T09:41:41.434Z,15.90
2022-08-22T09:42:46.399Z,12.45
2022-08-22T09:44:12.942Z,12.32
2022-08-22T09:45:24.161Z,12.25
2022-08-22T09:48:21.459Z,12.73
2022-08-22T09:49:44.877Z,14.30
2022-08-22T09:51:08.335Z,14.60
2022-08-22T09:52:33.875Z,12.60
2022-08-22T09:54:11.642Z,14.15
2022-08-22T09:55:45.482Z,13.50
2022-08-22T09:56:59.662Z,13.20
2022-08-22T09:58:32.043Z,15.57
2022-08-22T09:59:43.317Z,14.25
2022-08-22T10:00:55.514Z,15.10
2022-08-22T10:02:44.515Z,16.30
2022-08-22T10:04:23.346Z,17.75
2022-08-22T10:05:46.601Z,22.58
2022-08-22T10:07:24.067Z,18.77
2022-08-22T10:08:37.290Z,23.33
2022-08-22T10:09:57.475Z,21.58
2022-08-22T10:11:20.558Z,20.20
2022-08-22T10:12:35.759Z,24.13
2022-08-22T10:13:57.523Z,19.42
2022-08-22T10:15:33.925Z,19.60
2022-08-22T10:16:47.535Z,22.10
2022-08-22T10:18:10.459Z,20.67
2022-08-22T10:19:20.317Z,19.83
2022-08-22T10:20:29.267Z,21.38
2022-08-22T10:22:05.684Z,23.10
2022-08-22T10:23:33.414Z,24.00
2022-08-22T10:25:07.734Z,21.80
2022-08-22T10:26:22.858Z,22.02
2022-08-22T10:27:30.137Z,23.17
2022-08-22T10:28:49.471Z,22.27
2022-08-22T10:30:01.437Z,24.92
2022-08-22T10:31:21.325Z,23.55
2022-08-22T10:32:34.438Z,26.92
2022-08-22T10:34:04.486Z,24.13
2022-08-22T10:35:34.398Z,24.42
2022-08-22T10:37:07.443Z,24.60
2022-08-22T10:38:31.866Z,23.45
2022-08-22T10:39:48.117Z,22.58
2022-08-22T10:41:00.730Z,23.88
2022-08-22T10:42:35.247Z,24.50
2022-08-22T10:44:14.902Z,23.83
2022-08-22T10:45:36.177Z,25.25
2022-08-22T10:46:44.091Z,23.48
2022-08-22T10:47:54.881Z,24.08
2022-08-22T10:49:07.805Z,25.08
2022-08-22T10:50:20.116Z,23.05
2022-08-22T10:51:54.293Z,26.98
2022-08-22T10:53:29.574Z,24.95
2022-08-22T10:54:37.439Z,23.42
2022-08-22T10:55:42.396Z,24.65
2022-08-22T10:56:55.496Z,25.17
2022-08-22T10:58:13.395Z,22.27
2022-08-22T10:59:27.361Z,25.65
2022-08-22T11:00:51.450Z,25.50
2022-08-22T11:02:21.099Z,24.08
2022-08-22T11:03:42.399Z,26.67
2022-08-22T11:04:53.220Z,28.10
2022-08-22T11:06:00.472Z,27.65
2022-08-22T11:07:14.904Z,25.45
2022-08-22T11:08:20.907Z,23.33
2022-08-22T11:09:43.021Z,27.88
2022-08-22T11:11:01.719Z,22.73
2022-08-22T11:12:03.769Z,23.92
2022-08-22T11:13:21.412Z,22.70
2022-08-22T11:14:41.974Z,22.50
2022-08-22T11:16:05.266Z,25.25
2022-08-22T11:17:14.539Z,28.33
2022-08-22T11:18:35.705Z,20.60
2022-08-22T11:20:09.044Z,24.08
2022-08-22T11:22:34.502Z,24.88
2022-08-22T11:23:45.611Z,22.17
2022-08-22T11:25:35.705Z,22.27
2022-08-22T11:27:17.747Z,24.63
2022-08-22T11:28:30.934Z,22.23
2022-08-22T11:30:03.851Z,27.98
2022-08-22T11:31:13.806Z,26.95
2022-08-22T11:32:29.097Z,31.23
2022-08-22T11:33:47.350Z,25.92
2022-08-22T11:35:16.845Z,23.02
2022-08-22T11:36:46.360Z,26.50
2022-08-22T11:37:56.389Z,28.63
2022-08-22T11:39:23.157Z,27.33
2022-08-22T11:40:49.149Z,29.88
2022-08-22T11:42:01.890Z,26.13
2022-08-22T11:43:18.224Z,31.55
2022-08-22T11:44:50.348Z,26.42
2022-08-22T11:45:57.532Z,30.92
2022-08-22T11:47:01.957Z,29.42
2022-08-22T11:48:34.013Z,25.98
2022-08-22T11:49:55.807Z,26.48
2022-08-22T11:50:57.450Z,29.77
2022-08-22T11:52:25.717Z,27.50
2022-08-22T11:53:27.369Z,23.98
2022-08-22T11:54:51.770Z,18.98
2022-08-22T11:55:56.424Z,14.88
2022-08-22T11:57:11.146Z,16.48
2022-08-22T11:58:34.883Z,19.88
2022-08-22T11:59:45.538Z,17.40
2022-08-22T12:01:04.514Z,16.25
2022-08-22T12:02:31.416Z,16.25
2022-08-22T12:03:55.691Z,18.13
2022-08-22T12:05:11.034Z,15.43
2022-08-22T12:06:24.017Z,18.63
2022-08-22T12:07:30.315Z,18.33
2022-08-22T12:08:40.840Z,18.33
2022-08-22T12:09:50.715Z,19.00
2022-08-22T12:11:35.897Z,21.58
2022-08-22T12:12:51.814Z,19.25
2022-08-22T12:14:06.362Z,19.60
2022-08-22T12:15:45.716Z,16.98
2022-08-22T12:16:56.514Z,17.13
2022-08-22T12:18:10.127Z,18.25
2022-08-22T12:19:32.892Z,19.13
2022-08-22T12:21:07.196Z,15.27
2022-08-22T12:22:16.720Z,15.50
2022-08-22T12:23:43.246Z,14.77
2022-08-22T12:25:02.742Z,12.98
2022-08-22T12:26:13.786Z,13.43
2022-08-22T12:27:36.545Z,15.27
2022-08-22T12:28:40.003Z,13.65
2022-08-22T12:29:51.284Z,17.45
2022-08-22T12:31:12.298Z,15.50
2022-08-22T12:32:38.564Z,17.42
2022-08-22T12:34:04.175Z,21.70
2022-08-22T12:35:14.626Z,15.95
2022-08-22T12:36:41.090Z,19.13
2022-08-22T12:37:53.363Z,16.25
2022-08-22T12:39:10.968Z,18.25
2022-08-22T12:40:37.255Z,18.83
2022-08-22T12:42:06.595Z,23.27
2022-08-22T12:43:26.318Z,17.85
2022-08-22T12:44:39.637Z,18.88
2022-08-22T12:45:59.909Z,22.33
2022-08-22T12:47:19.711Z,20.83
2022-08-22T12:48:52.389Z,19.52
2022-08-22T12:50:00.077Z,19.58
2022-08-22T12:51:16.791Z,21.63
2022-08-22T12:52:52.110Z,19.25
2022-08-22T12:54:29.221Z,20.17
2022-08-22T12:55:56.223Z,17.10
2022-08-22T12:56:58.513Z,18.38
2022-08-22T12:58:42.447Z,18.48
2022-08-22T12:59:48.329Z,17.52
2022-08-22T13:00:52.577Z,14.27
2022-08-22T13:01:59.587Z,14.18
2022-08-22T13:03:11.365Z,17.88
2022-08-22T13:04:19.318Z,13.52
2022-08-22T13:05:40.787Z,20.73
2022-08-22T13:07:02.833Z,18.02
2022-08-22T13:08:09.918Z,14.82
2022-08-22T13:09:18.909Z,16.50
2022-08-22T13:10:52.246Z,16.30
2022-08-22T13:12:05.080Z,20.05
2022-08-22T13:13:12.256Z,12.80
2022-08-22T13:14:24.037Z,13.98
2022-08-22T13:15:29.541Z,16.42
2022-08-22T13:16:41.807Z,13.25
2022-08-22T13:17:52.027Z,16.73
2022-08-22T13:19:07.724Z,17.23
2022-08-22T13:20:24.360Z,17.65
2022-08-22T13:21:36.259Z,17.65
2022-08-22T13:22:45.566Z,15.00
2022-08-22T13:23:53.525Z,15.07
2022-08-22T13:25:08.487Z,18.02
2022-08-22T13:26:16.413Z,18.55
2022-08-22T13:27:51.394Z,21.35
2022-08-22T13:29:39.172Z,20.45
2022-08-22T13:30:43.714Z,21.98
2022-08-22T13:31:53.070Z,18.73
2022-08-22T13:33:04.576Z,19.25
2022-08-22T13:34:22.845Z,19.20
2022-08-22T13:35:33.930Z,19.23
2022-08-22T13:36:51.671Z,22.17
2022-08-22T13:38:03.417Z,22.77
2022-08-22T13:39:19.702Z,19.65
2022-08-22T13:40:30.969Z,22.35
2022-08-22T13:41:44.235Z,19.83
2022-08-22T13:42:54.197Z,19.73
2022-08-22T13:44:05.088Z,20.30
2022-08-22T13:45:15.792Z,25.65
2022-08-22T13:46:26.009Z,20.52
2022-08-22T13:47:34.429Z,23.85
2022-08-22T13:48:52.334Z,21.15
2022-08-22T13:50:10.298Z,19.60
2022-08-22T13:51:20.573Z,18.00
2022-08-22T13:52:43.077Z,22.02
2022-08-22T13:54:02.225Z,18.90
2022-08-22T13:55:29.680Z,18.35
2022-08-22T13:56:56.412Z,19.25
2022-08-22T13:58:25.078Z,20.55
2022-08-22T13:59:52.481Z,19.23
2022-08-22T14:01:17.691Z,19.80
2022-08-22T14:02:43.489Z,20.63
2022-08-22T14:03:57.779Z,24.77
2022-08-22T14:05:05.381Z,22.95
2022-08-22T14:06:35.368Z,24.83
2022-08-22T14:08:15.522Z,21.17
2022-08-22T14:09:54.426Z,20.17
2022-08-22T14:11:11.975Z,25.95
2022-08-22T14:12:18.877Z,23.23
2022-08-22T14:13:20.545Z,18.65
2022-08-22T14:14:32.128Z,21.77
2022-08-22T14:15:44.947Z,17.52
2022-08-22T14:16:51.907Z,14.70
2022-08-22T14:18:03.362Z,15.55
2022-08-22T14:19:10.583Z,19.08
2022-08-22T14:20:32.104Z,16.38
2022-08-22T14:21:41.396Z,17.45
2022-08-22T14:22:58.952Z,16.92
2022-08-22T14:24:28.518Z,18.05
2022-08-22T14:25:36.838Z,14.20
2022-08-22T14:26:49.302Z,17.95
2022-08-22T14:27:52.609Z,18.67
2022-08-22T14:28:57.572Z,15.55
2022-08-22T14:30:04.778Z,18.23
2022-08-22T14:31:14.483Z,20.40
2022-08-22T14:32:19.437Z,19.00
2022-08-22T14:33:48.590Z,18.77
2022-08-22T14:34:58.904Z,16.45
2022-08-22T14:36:11.745Z,13.20
2022-08-22T14:37:29.030Z,17.15
2022-08-22T14:38:39.679Z,16.45
2022-08-22T14:39:59.357Z,15.13
2022-08-22T14:41:07.075Z,16.50
2022-08-22T14:42:17.790Z,16.38
2022-08-22T14:43:45.323Z,17.80
2022-08-22T14:45:06.733Z,16.98
2022-08-22T14:46:18.307Z,14.70
2022-08-22T14:47:55.659Z,19.42
2022-08-22T14:49:16.436Z,15.80
2022-08-22T14:50:38.650Z,18.33
2022-08-22T14:51:48.134Z,18.98
2022-08-22T14:53:05.765Z,17.75
2022-08-22T14:54:21.529Z,20.73
2022-08-22T14:55:26.521Z,19.92
2022-08-22T14:56:30.141Z,20.15
2022-08-22T14:57:35.976Z,19.15
2022-08-22T14:58:56.224Z,23.08
2022-08-22T14:59:59.009Z,25.20
2022-08-22T15:01:11.258Z,23.05
2022-08-22T15:02:31.958Z,19.83
2022-08-22T15:03:38.061Z,24.88
2022-08-22T15:04:47.832Z,19.77
2022-08-22T15:05:52.120Z,23.00
2022-08-22T15:06:58.515Z,24.27
2022-08-22T15:08:00.556Z,22.88
2022-08-22T15:09:08.680Z,22.27
2022-08-22T15:10:25.358Z,23.48
2022-08-22T15:11:33.236Z,22.33
2022-08-22T15:12:48.740Z,23.80
2022-08-22T15:14:20.125Z,26.35
2022-08-22T15:16:37.339Z,26.42
2022-08-22T15:17:51.095Z,28.52
2022-08-22T15:18:53.030Z,27.25
2022-08-22T15:20:10.924Z,29.48
2022-08-22T15:21:27.685Z,31.33
2022-08-22T15:22:29.578Z,30.63
2022-08-22T15:23:32.266Z,29.80
2022-08-22T15:25:01.711Z,35.88
2022-08-22T15:26:23.148Z,31.65
2022-08-22T15:27:27.687Z,38.60
2022-08-22T15:28:49.835Z,30.42
2022-08-22T15:29:58.710Z,32.35
2022-08-22T15:31:05.741Z,31.65
2022-08-22T15:32:08.000Z,32.17
2022-08-22T15:33:25.102Z,32.15
2022-08-22T15:34:42.215Z,31.65
2022-08-22T15:35:45.817Z,29.65
2022-08-22T15:37:27.933Z,31.10
2022-08-22T15:38:36.608Z,33.00
2022-08-22T15:40:08.040Z,30.30
2022-08-22T15:41:36.929Z,33.15
2022-08-22T15:42:47.347Z,28.77
2022-08-22T15:43:52.998Z,31.50
2022-08-22T15:44:55.674Z,32.75
2022-08-22T15:46:21.290Z,30.75
2022-08-22T15:47:28.442Z,32.78
2022-08-22T15:48:36.443Z,29.73
2022-08-22T15:49:51.942Z,29.02
2022-08-22T15:51:23.945Z,32.20
2022-08-22T15:52:32.247Z,31.70
2022-08-22T15:54:01.750Z,34.25
2022-08-22T15:55:24.356Z,27.27
2022-08-22T15:56:29.529Z,30.10
2022-08-22T15:57:41.235Z,30.80
2022-08-22T15:58:49.487Z,28.70
2022-08-22T15:59:58.842Z,30.65
2022-08-22T16:01:19.063Z,35.22
2022-08-22T16:02:28.129Z,28.23
2022-08-22T16:03:33.281Z,29.25
2022-08-22T16:04:47.460Z,31.08
2022-08-22T16:05:55.599Z,28.58
2022-08-22T16:07:01.352Z,27.98
2022-08-22T16:08:25.991Z,28.33
2022-08-22T16:09:43.537Z,28.27
2022-08-22T16:11:09.711Z,28.88
2022-08-22T16:12:34.800Z,30.35
2022-08-22T16:13:40.270Z,27.98
2022-08-22T16:14:41.912Z,28.90
2022-08-22T16:15:54.123Z,29.50
2022-08-22T16:17:04.499Z,28.17
2022-08-22T16:18:06.939Z,31.40
2022-08-22T16:19:16.675Z,29.42
2022-08-22T16:20:38.290Z,28.65
2022-08-22T16:21:39.939Z,32.67
2022-08-22T16:22:56.769Z,32.05
2022-08-22T16:23:58.473Z,36.47
2022-08-22T16:25:02.933Z,35.88
2022-08-22T16:26:08.257Z,35.10
2022-08-22T16:27:25.967Z,37.05
2022-08-22T16:28:54.347Z,32.15
2022-08-22T16:30:05.899Z,29.95
2022-08-22T16:31:39.622Z,30.38
2022-08-22T16:32:51.935Z,27.33
2022-08-22T16:33:57.322Z,32.90
2022-08-22T16:34:59.089Z,29.95
2022-08-22T16:36:37.916Z,29.25
2022-08-22T16:37:46.510Z,29.98
2022-08-22T16:38:52.392Z,30.23
2022-08-22T16:40:04.247Z,30.63
2022-08-22T16:41:06.130Z,29.48
2022-08-22T16:42:14.248Z,33.45
2022-08-22T16:43:19.495Z,30.20
2022-08-22T16:44:30.254Z,42.15
2022-08-22T16:45:36.638Z,34.47
2022-08-22T16:46:44.246Z,31.20